sensor_id;sensor_type;location;lat;lon;timestamp;noise_LAeq;noise_LA_min;noise_LA_max;noise_LA01;noise_LA95
60872;Laerm;46714;50.118;14.462;2023-08-17T00:00:08;66.56;48.42;77.91;;
60872;Laerm;46714;50.118;14.462;2023-08-17T00:02:35;67.22;45.01;78.57;;
60872;Laerm;46714;50.118;14.462;2023-08-17T00:05:00;68.64;51.77;77.82;;
60872;Laerm;46714;50.118;14.462;2023-08-17T00:07:26;68.71;50.28;82.45;;
60872;Laerm;46714;50.118;14.462;2023-08-17T00:09:51;69.71;58.85;77.67;;
60872;Laerm;46714;50.118;14.462;2023-08-17T00:12:17;67.52;49.02;77.65;;
60872;Laerm;46714;50.118;14.462;2023-08-17T00:14:42;67.48;54.41;76.87;;
60872;Laerm;46714;50.118;14.462;2023-08-17T00:17:07;67.78;52.22;82.16;;
60872;Laerm;46714;50.118;14.462;2023-08-17T00:19:32;67.74;52.97;77.55;;
60872;Laerm;46714;50.118;14.462;2023-08-17T00:21:58;66.90;47.48;78.68;;
60872;Laerm;46714;50.118;14.462;2023-08-17T00:24:26;64.73;50.77;73.92;;
60872;Laerm;46714;50.118;14.462;2023-08-17T00:26:51;68.99;51.57;77.54;;
60872;Laerm;46714;50.118;14.462;2023-08-17T00:29:16;67.53;50.11;75.77;;
60872;Laerm;46714;50.118;14.462;2023-08-17T00:31:42;66.49;47.83;74.79;;
60872;Laerm;46714;50.118;14.462;2023-08-17T00:34:08;68.54;57.00;80.82;;
60872;Laerm;46714;50.118;14.462;2023-08-17T00:36:33;66.67;50.81;82.99;;
60872;Laerm;46714;50.118;14.462;2023-08-17T00:38:58;67.80;52.50;78.40;;
60872;Laerm;46714;50.118;14.462;2023-08-17T00:41:24;68.67;46.02;81.39;;
60872;Laerm;46714;50.118;14.462;2023-08-17T00:43:49;68.94;53.10;77.56;;
60872;Laerm;46714;50.118;14.462;2023-08-17T00:46:15;65.59;45.36;76.00;;
60872;Laerm;46714;50.118;14.462;2023-08-17T00:48:42;67.03;54.89;74.35;;
60872;Laerm;46714;50.118;14.462;2023-08-17T00:51:08;67.71;44.65;78.13;;
60872;Laerm;46714;50.118;14.462;2023-08-17T00:53:33;66.93;48.58;75.95;;
60872;Laerm;46714;50.118;14.462;2023-08-17T00:56:01;66.88;47.38;75.27;;
60872;Laerm;46714;50.118;14.462;2023-08-17T00:58:27;68.20;47.81;77.26;;
60872;Laerm;46714;50.118;14.462;2023-08-17T01:00:53;67.04;52.90;76.68;;
60872;Laerm;46714;50.118;14.462;2023-08-17T01:03:20;68.88;53.39;77.13;;
60872;Laerm;46714;50.118;14.462;2023-08-17T01:05:47;65.68;45.89;78.18;;
60872;Laerm;46714;50.118;14.462;2023-08-17T01:08:12;68.25;45.66;77.47;;
60872;Laerm;46714;50.118;14.462;2023-08-17T01:10:55;67.77;48.55;77.57;;
60872;Laerm;46714;50.118;14.462;2023-08-17T01:13:27;68.84;44.07;83.83;;
60872;Laerm;46714;50.118;14.462;2023-08-17T01:15:57;65.82;47.00;78.18;;
60872;Laerm;46714;50.118;14.462;2023-08-17T01:18:29;68.55;55.51;77.54;;
60872;Laerm;46714;50.118;14.462;2023-08-17T01:20:56;66.55;49.81;79.93;;
60872;Laerm;46714;50.118;14.462;2023-08-17T01:23:22;68.05;50.00;78.89;;
60872;Laerm;46714;50.118;14.462;2023-08-17T01:25:48;68.08;47.10;80.85;;
60872;Laerm;46714;50.118;14.462;2023-08-17T01:28:13;68.33;49.28;77.92;;
60872;Laerm;46714;50.118;14.462;2023-08-17T01:33:20;66.63;48.69;76.65;;
60872;Laerm;46714;50.118;14.462;2023-08-17T01:35:55;67.95;51.75;77.21;;
60872;Laerm;46714;50.118;14.462;2023-08-17T01:38:23;65.61;50.55;74.63;;
60872;Laerm;46714;50.118;14.462;2023-08-17T01:40:51;70.24;54.68;80.82;;
60872;Laerm;46714;50.118;14.462;2023-08-17T01:43:19;68.56;53.20;83.93;;
60872;Laerm;46714;50.118;14.462;2023-08-17T01:45:45;69.77;51.00;88.88;;
60872;Laerm;46714;50.118;14.462;2023-08-17T01:48:11;65.47;41.38;80.82;;
60872;Laerm;46714;50.118;14.462;2023-08-17T01:50:36;69.06;57.71;78.15;;
60872;Laerm;46714;50.118;14.462;2023-08-17T01:53:02;67.11;54.95;78.94;;
60872;Laerm;46714;50.118;14.462;2023-08-17T01:55:27;67.64;57.08;79.77;;
60872;Laerm;46714;50.118;14.462;2023-08-17T01:57:52;69.22;49.77;78.16;;
60872;Laerm;46714;50.118;14.462;2023-08-17T02:00:18;67.54;54.91;80.52;;
60872;Laerm;46714;50.118;14.462;2023-08-17T02:02:43;68.33;53.31;81.46;;
60872;Laerm;46714;50.118;14.462;2023-08-17T02:05:09;69.13;52.11;80.20;;
60872;Laerm;46714;50.118;14.462;2023-08-17T02:07:34;66.09;48.73;74.85;;
60872;Laerm;46714;50.118;14.462;2023-08-17T02:10:00;66.89;49.85;74.47;;
60872;Laerm;46714;50.118;14.462;2023-08-17T02:12:25;68.65;57.86;81.16;;
60872;Laerm;46714;50.118;14.462;2023-08-17T02:14:50;69.38;45.89;82.37;;
60872;Laerm;46714;50.118;14.462;2023-08-17T02:17:16;67.84;49.84;79.31;;
60872;Laerm;46714;50.118;14.462;2023-08-17T02:19:45;67.47;54.15;76.77;;
60872;Laerm;46714;50.118;14.462;2023-08-17T02:22:12;69.44;53.40;78.59;;
60872;Laerm;46714;50.118;14.462;2023-08-17T02:24:37;69.15;56.23;76.95;;
60872;Laerm;46714;50.118;14.462;2023-08-17T02:27:03;68.91;59.39;78.90;;
60872;Laerm;46714;50.118;14.462;2023-08-17T02:29:28;71.16;56.69;81.08;;
60872;Laerm;46714;50.118;14.462;2023-08-17T02:31:54;70.98;56.09;83.58;;
60872;Laerm;46714;50.118;14.462;2023-08-17T02:34:19;67.46;52.29;78.68;;
60872;Laerm;46714;50.118;14.462;2023-08-17T02:36:44;68.95;58.01;76.26;;
60872;Laerm;46714;50.118;14.462;2023-08-17T02:39:10;68.85;53.82;79.88;;
60872;Laerm;46714;50.118;14.462;2023-08-17T02:41:35;70.71;57.73;80.06;;
60872;Laerm;46714;50.118;14.462;2023-08-17T02:44:01;67.28;53.96;73.53;;
60872;Laerm;46714;50.118;14.462;2023-08-17T02:46:26;69.89;56.40;78.64;;
60872;Laerm;46714;50.118;14.462;2023-08-17T02:48:52;71.59;61.76;80.96;;
60872;Laerm;46714;50.118;14.462;2023-08-17T02:51:18;70.04;54.01;79.66;;
60872;Laerm;46714;50.118;14.462;2023-08-17T02:53:43;69.21;52.77;77.73;;
60872;Laerm;46714;50.118;14.462;2023-08-17T02:56:09;70.47;59.57;79.69;;
60872;Laerm;46714;50.118;14.462;2023-08-17T02:58:40;76.33;58.65;95.21;;
60872;Laerm;46714;50.118;14.462;2023-08-17T03:01:06;70.57;57.76;79.25;;
60872;Laerm;46714;50.118;14.462;2023-08-17T03:03:32;69.02;53.84;76.46;;
60872;Laerm;46714;50.118;14.462;2023-08-17T03:05:58;69.32;55.77;80.01;;
60872;Laerm;46714;50.118;14.462;2023-08-17T03:08:23;70.49;55.52;80.33;;
60872;Laerm;46714;50.118;14.462;2023-08-17T03:10:48;72.33;63.24;82.24;;
60872;Laerm;46714;50.118;14.462;2023-08-17T03:13:14;71.22;62.34;85.62;;
60872;Laerm;46714;50.118;14.462;2023-08-17T03:15:39;70.74;62.47;77.29;;
60872;Laerm;46714;50.118;14.462;2023-08-17T03:18:05;68.94;60.84;76.30;;
60872;Laerm;46714;50.118;14.462;2023-08-17T03:20:31;71.47;63.55;81.13;;
60872;Laerm;46714;50.118;14.462;2023-08-17T03:22:56;74.02;62.51;83.95;;
60872;Laerm;46714;50.118;14.462;2023-08-17T03:25:22;72.29;60.86;81.14;;
60872;Laerm;46714;50.118;14.462;2023-08-17T03:27:47;72.32;61.75;79.16;;
60872;Laerm;46714;50.118;14.462;2023-08-17T03:30:12;74.30;62.05;82.41;;
60872;Laerm;46714;50.118;14.462;2023-08-17T03:32:38;73.27;64.77;81.41;;
60872;Laerm;46714;50.118;14.462;2023-08-17T03:35:03;72.27;65.46;79.24;;
60872;Laerm;46714;50.118;14.462;2023-08-17T03:37:29;72.72;66.70;79.50;;
60872;Laerm;46714;50.118;14.462;2023-08-17T03:39:54;72.99;63.29;79.58;;
60872;Laerm;46714;50.118;14.462;2023-08-17T03:42:19;73.57;66.03;80.92;;
60872;Laerm;46714;50.118;14.462;2023-08-17T03:44:45;72.99;66.97;77.89;;
60872;Laerm;46714;50.118;14.462;2023-08-17T03:47:10;73.11;61.31;79.78;;
60872;Laerm;46714;50.118;14.462;2023-08-17T03:49:36;80.01;67.30;100.14;;
60872;Laerm;46714;50.118;14.462;2023-08-17T03:52:02;74.76;69.47;83.05;;
60872;Laerm;46714;50.118;14.462;2023-08-17T03:54:27;74.42;69.29;79.56;;
60872;Laerm;46714;50.118;14.462;2023-08-17T03:56:52;74.02;69.44;78.12;;
60872;Laerm;46714;50.118;14.462;2023-08-17T03:59:18;74.81;68.27;81.84;;
60872;Laerm;46714;50.118;14.462;2023-08-17T04:01:43;74.32;65.54;81.80;;
60872;Laerm;46714;50.118;14.462;2023-08-17T04:04:09;76.19;67.54;90.19;;
60872;Laerm;46714;50.118;14.462;2023-08-17T04:06:35;75.39;70.55;80.34;;
60872;Laerm;46714;50.118;14.462;2023-08-17T04:09:01;75.12;67.77;82.42;;
60872;Laerm;46714;50.118;14.462;2023-08-17T04:11:26;76.99;68.27;96.97;;
60872;Laerm;46714;50.118;14.462;2023-08-17T04:13:51;75.74;68.47;82.44;;
60872;Laerm;46714;50.118;14.462;2023-08-17T04:16:17;75.08;69.40;82.00;;
60872;Laerm;46714;50.118;14.462;2023-08-17T04:18:42;75.88;68.25;81.08;;
60872;Laerm;46714;50.118;14.462;2023-08-17T04:21:08;74.94;68.98;78.98;;
60872;Laerm;46714;50.118;14.462;2023-08-17T04:23:33;76.34;70.94;83.26;;
60872;Laerm;46714;50.118;14.462;2023-08-17T04:25:58;75.18;68.88;82.24;;
60872;Laerm;46714;50.118;14.462;2023-08-17T04:28:24;75.91;70.01;82.34;;
60872;Laerm;46714;50.118;14.462;2023-08-17T04:30:49;75.90;69.79;80.17;;
60872;Laerm;46714;50.118;14.462;2023-08-17T04:33:15;76.13;70.62;88.19;;
60872;Laerm;46714;50.118;14.462;2023-08-17T04:35:40;76.14;68.87;81.79;;
60872;Laerm;46714;50.118;14.462;2023-08-17T04:38:06;74.79;69.51;79.05;;
60872;Laerm;46714;50.118;14.462;2023-08-17T04:40:31;75.71;70.07;82.19;;
60872;Laerm;46714;50.118;14.462;2023-08-17T04:42:57;76.11;70.96;81.70;;
60872;Laerm;46714;50.118;14.462;2023-08-17T04:45:23;76.24;72.53;81.96;;
60872;Laerm;46714;50.118;14.462;2023-08-17T04:47:48;75.52;68.63;80.86;;
60872;Laerm;46714;50.118;14.462;2023-08-17T04:50:15;76.06;68.13;84.98;;
60872;Laerm;46714;50.118;14.462;2023-08-17T04:52:44;76.60;69.74;83.71;;
60872;Laerm;46714;50.118;14.462;2023-08-17T04:55:10;75.89;69.01;82.22;;
60872;Laerm;46714;50.118;14.462;2023-08-17T04:57:35;76.79;71.07;84.89;;
60872;Laerm;46714;50.118;14.462;2023-08-17T05:00:00;76.74;69.87;84.05;;
60872;Laerm;46714;50.118;14.462;2023-08-17T05:02:27;75.69;69.33;81.81;;
60872;Laerm;46714;50.118;14.462;2023-08-17T05:04:53;76.05;70.93;80.87;;
60872;Laerm;46714;50.118;14.462;2023-08-17T05:07:18;76.21;72.22;80.96;;
60872;Laerm;46714;50.118;14.462;2023-08-17T05:09:44;76.32;72.52;82.27;;
60872;Laerm;46714;50.118;14.462;2023-08-17T05:12:09;76.08;70.12;83.85;;
60872;Laerm;46714;50.118;14.462;2023-08-17T05:14:34;75.93;69.34;81.48;;
60872;Laerm;46714;50.118;14.462;2023-08-17T05:17:00;75.54;69.76;81.91;;
60872;Laerm;46714;50.118;14.462;2023-08-17T05:19:25;76.02;70.75;88.12;;
60872;Laerm;46714;50.118;14.462;2023-08-17T05:21:51;75.98;71.65;83.92;;
60872;Laerm;46714;50.118;14.462;2023-08-17T05:24:17;75.99;68.95;82.02;;
60872;Laerm;46714;50.118;14.462;2023-08-17T05:26:43;83.99;71.73;106.98;;
60872;Laerm;46714;50.118;14.462;2023-08-17T05:29:09;79.28;72.00;97.12;;
60872;Laerm;46714;50.118;14.462;2023-08-17T05:31:34;77.02;67.39;96.84;;
60872;Laerm;46714;50.118;14.462;2023-08-17T05:33:59;75.51;68.95;79.99;;
60872;Laerm;46714;50.118;14.462;2023-08-17T05:36:25;74.86;67.23;81.37;;
60872;Laerm;46714;50.118;14.462;2023-08-17T05:38:50;75.86;69.55;82.52;;
60872;Laerm;46714;50.118;14.462;2023-08-17T05:41:16;75.33;68.43;82.16;;
60872;Laerm;46714;50.118;14.462;2023-08-17T05:43:42;76.19;69.68;82.33;;
60872;Laerm;46714;50.118;14.462;2023-08-17T05:46:08;77.71;70.71;96.01;;
60872;Laerm;46714;50.118;14.462;2023-08-17T05:48:33;75.27;69.15;84.56;;
60872;Laerm;46714;50.118;14.462;2023-08-17T05:50:59;75.15;65.78;81.80;;
60872;Laerm;46714;50.118;14.462;2023-08-17T05:53:24;79.05;68.96;102.47;;
60872;Laerm;46714;50.118;14.462;2023-08-17T05:55:50;74.88;67.03;82.07;;
60872;Laerm;46714;50.118;14.462;2023-08-17T05:58:16;75.23;66.06;82.04;;
60872;Laerm;46714;50.118;14.462;2023-08-17T06:00:41;75.17;69.65;81.43;;
60872;Laerm;46714;50.118;14.462;2023-08-17T06:03:07;76.08;70.24;83.78;;
60872;Laerm;46714;50.118;14.462;2023-08-17T06:05:32;74.68;69.42;81.19;;
60872;Laerm;46714;50.118;14.462;2023-08-17T06:07:58;75.20;69.75;80.01;;
60872;Laerm;46714;50.118;14.462;2023-08-17T06:10:24;77.96;66.97;101.31;;
60872;Laerm;46714;50.118;14.462;2023-08-17T06:12:55;77.73;68.94;95.19;;
60872;Laerm;46714;50.118;14.462;2023-08-17T06:15:21;74.28;63.73;81.47;;
60872;Laerm;46714;50.118;14.462;2023-08-17T06:17:47;75.28;66.25;82.13;;
60872;Laerm;46714;50.118;14.462;2023-08-17T06:20:15;75.72;70.40;81.96;;
60872;Laerm;46714;50.118;14.462;2023-08-17T06:22:40;80.62;68.50;96.46;;
60872;Laerm;46714;50.118;14.462;2023-08-17T06:25:06;74.23;68.83;81.71;;
60872;Laerm;46714;50.118;14.462;2023-08-17T06:27:32;74.96;68.42;81.06;;
60872;Laerm;46714;50.118;14.462;2023-08-17T06:29:58;75.33;68.41;83.23;;
60872;Laerm;46714;50.118;14.462;2023-08-17T06:32:24;75.65;65.31;97.37;;
60872;Laerm;46714;50.118;14.462;2023-08-17T06:34:49;75.13;71.27;83.23;;
60872;Laerm;46714;50.118;14.462;2023-08-17T06:37:14;75.30;65.94;83.37;;
60872;Laerm;46714;50.118;14.462;2023-08-17T06:39:40;75.18;67.09;84.83;;
60872;Laerm;46714;50.118;14.462;2023-08-17T06:42:05;77.47;66.26;93.44;;
60872;Laerm;46714;50.118;14.462;2023-08-17T06:44:31;74.91;68.37;81.55;;
60872;Laerm;46714;50.118;14.462;2023-08-17T06:46:56;74.86;65.84;81.83;;
60872;Laerm;46714;50.118;14.462;2023-08-17T06:49:22;77.72;70.59;97.06;;
60872;Laerm;46714;50.118;14.462;2023-08-17T06:51:47;74.99;68.99;80.03;;
60872;Laerm;46714;50.118;14.462;2023-08-17T06:54:13;76.08;69.38;88.58;;
60872;Laerm;46714;50.118;14.462;2023-08-17T06:56:38;77.12;69.55;96.57;;
60872;Laerm;46714;50.118;14.462;2023-08-17T06:59:04;75.45;66.34;82.48;;
60872;Laerm;46714;50.118;14.462;2023-08-17T07:01:29;78.42;70.35;97.14;;
60872;Laerm;46714;50.118;14.462;2023-08-17T07:03:55;77.00;66.24;92.06;;
60872;Laerm;46714;50.118;14.462;2023-08-17T07:06:21;79.76;71.07;96.09;;
60872;Laerm;46714;50.118;14.462;2023-08-17T07:08:46;76.35;67.54;92.27;;
60872;Laerm;46714;50.118;14.462;2023-08-17T07:11:12;75.86;69.11;88.84;;
60872;Laerm;46714;50.118;14.462;2023-08-17T07:13:38;74.54;67.43;82.41;;
60872;Laerm;46714;50.118;14.462;2023-08-17T07:16:03;85.33;70.08;104.97;;
60872;Laerm;46714;50.118;14.462;2023-08-17T07:18:29;75.20;68.12;83.62;;
60872;Laerm;46714;50.118;14.462;2023-08-17T07:20:54;74.14;67.35;79.51;;
60872;Laerm;46714;50.118;14.462;2023-08-17T07:23:19;74.53;65.69;80.67;;
60872;Laerm;46714;50.118;14.462;2023-08-17T07:25:45;75.71;62.56;90.43;;
60872;Laerm;46714;50.118;14.462;2023-08-17T07:28:10;74.17;66.65;79.64;;
60872;Laerm;46714;50.118;14.462;2023-08-17T07:30:36;75.62;69.44;81.61;;
60872;Laerm;46714;50.118;14.462;2023-08-17T07:33:01;73.75;68.54;78.09;;
60872;Laerm;46714;50.118;14.462;2023-08-17T07:35:26;74.61;64.48;84.60;;
60872;Laerm;46714;50.118;14.462;2023-08-17T07:37:52;74.86;69.32;82.97;;
60872;Laerm;46714;50.118;14.462;2023-08-17T07:40:17;75.32;69.93;87.48;;
60872;Laerm;46714;50.118;14.462;2023-08-17T07:42:42;74.66;67.02;83.92;;
60872;Laerm;46714;50.118;14.462;2023-08-17T07:45:08;75.02;67.08;83.26;;
60872;Laerm;46714;50.118;14.462;2023-08-17T07:47:34;77.86;71.10;94.63;;
60872;Laerm;46714;50.118;14.462;2023-08-17T07:50:05;74.39;67.92;79.80;;
60872;Laerm;46714;50.118;14.462;2023-08-17T07:52:31;74.29;68.99;82.51;;
60872;Laerm;46714;50.118;14.462;2023-08-17T07:54:56;75.07;68.61;82.08;;
60872;Laerm;46714;50.118;14.462;2023-08-17T07:57:22;74.56;64.07;82.87;;
60872;Laerm;46714;50.118;14.462;2023-08-17T07:59:47;77.31;69.68;92.29;;
60872;Laerm;46714;50.118;14.462;2023-08-17T08:02:13;74.05;65.51;80.45;;
60872;Laerm;46714;50.118;14.462;2023-08-17T08:04:38;74.71;64.96;83.06;;
60872;Laerm;46714;50.118;14.462;2023-08-17T08:07:04;74.86;69.21;80.31;;
60872;Laerm;46714;50.118;14.462;2023-08-17T08:09:29;74.57;67.34;81.69;;
60872;Laerm;46714;50.118;14.462;2023-08-17T08:11:54;74.85;70.26;80.36;;
60872;Laerm;46714;50.118;14.462;2023-08-17T08:14:20;73.90;69.01;81.88;;
60872;Laerm;46714;50.118;14.462;2023-08-17T08:16:45;75.31;66.96;83.93;;
60872;Laerm;46714;50.118;14.462;2023-08-17T08:19:10;74.69;67.00;80.80;;
60872;Laerm;46714;50.118;14.462;2023-08-17T08:21:36;78.04;70.88;100.23;;
60872;Laerm;46714;50.118;14.462;2023-08-17T08:24:01;76.62;65.76;95.46;;
60872;Laerm;46714;50.118;14.462;2023-08-17T08:26:26;74.41;70.07;79.61;;
60872;Laerm;46714;50.118;14.462;2023-08-17T08:28:52;79.40;69.83;97.06;;
60872;Laerm;46714;50.118;14.462;2023-08-17T08:31:17;79.53;65.32;98.20;;
60872;Laerm;46714;50.118;14.462;2023-08-17T08:33:43;74.59;65.30;85.79;;
60872;Laerm;46714;50.118;14.462;2023-08-17T08:36:08;74.36;69.29;80.89;;
60872;Laerm;46714;50.118;14.462;2023-08-17T08:38:33;74.52;62.51;82.85;;
60872;Laerm;46714;50.118;14.462;2023-08-17T08:40:59;75.22;65.64;85.49;;
60872;Laerm;46714;50.118;14.462;2023-08-17T08:43:25;76.76;67.47;98.50;;
60872;Laerm;46714;50.118;14.462;2023-08-17T08:45:51;74.20;70.08;81.80;;
60872;Laerm;46714;50.118;14.462;2023-08-17T08:48:18;75.46;70.36;83.57;;
60872;Laerm;46714;50.118;14.462;2023-08-17T08:50:46;80.35;68.80;99.11;;
60872;Laerm;46714;50.118;14.462;2023-08-17T08:53:15;76.04;70.59;86.26;;
60872;Laerm;46714;50.118;14.462;2023-08-17T08:55:57;76.20;65.23;93.78;;
60872;Laerm;46714;50.118;14.462;2023-08-17T08:58:25;79.81;69.53;101.14;;
60872;Laerm;46714;50.118;14.462;2023-08-17T09:00:50;75.72;70.78;83.84;;
60872;Laerm;46714;50.118;14.462;2023-08-17T09:03:16;78.02;68.49;99.45;;
60872;Laerm;46714;50.118;14.462;2023-08-17T09:05:47;79.38;63.72;100.66;;
60872;Laerm;46714;50.118;14.462;2023-08-17T09:08:15;74.24;69.96;80.27;;
60872;Laerm;46714;50.118;14.462;2023-08-17T09:10:41;74.16;66.57;82.57;;
60872;Laerm;46714;50.118;14.462;2023-08-17T09:13:07;74.97;69.35;82.51;;
60872;Laerm;46714;50.118;14.462;2023-08-17T09:15:32;75.04;69.54;82.10;;
60872;Laerm;46714;50.118;14.462;2023-08-17T09:17:57;74.16;68.10;81.78;;
60872;Laerm;46714;50.118;14.462;2023-08-17T09:20:42;79.19;70.40;97.78;;
60872;Laerm;46714;50.118;14.462;2023-08-17T09:23:16;75.38;70.97;82.23;;
60872;Laerm;46714;50.118;14.462;2023-08-17T09:25:43;78.27;70.49;95.03;;
60872;Laerm;46714;50.118;14.462;2023-08-17T09:28:10;77.00;68.96;97.21;;
60872;Laerm;46714;50.118;14.462;2023-08-17T09:30:49;75.91;70.93;81.78;;
60872;Laerm;46714;50.118;14.462;2023-08-17T09:33:16;74.09;69.43;79.62;;
60872;Laerm;46714;50.118;14.462;2023-08-17T09:35:42;75.67;71.29;82.07;;
60872;Laerm;46714;50.118;14.462;2023-08-17T09:38:07;75.61;70.16;84.09;;
60872;Laerm;46714;50.118;14.462;2023-08-17T09:40:33;76.08;67.97;91.22;;
60872;Laerm;46714;50.118;14.462;2023-08-17T09:42:59;80.51;69.51;99.39;;
60872;Laerm;46714;50.118;14.462;2023-08-17T09:45:25;79.10;61.80;98.96;;
60872;Laerm;46714;50.118;14.462;2023-08-17T09:47:53;74.71;67.32;90.78;;
60872;Laerm;46714;50.118;14.462;2023-08-17T09:50:22;73.29;63.16;79.52;;
60872;Laerm;46714;50.118;14.462;2023-08-17T09:52:47;76.12;69.20;94.71;;
60872;Laerm;46714;50.118;14.462;2023-08-17T09:55:17;77.75;69.04;97.47;;
60872;Laerm;46714;50.118;14.462;2023-08-17T09:57:44;74.20;69.87;80.19;;
60872;Laerm;46714;50.118;14.462;2023-08-17T10:00:11;74.65;69.89;84.91;;
60872;Laerm;46714;50.118;14.462;2023-08-17T10:02:36;74.80;70.04;98.28;;
60872;Laerm;46714;50.118;14.462;2023-08-17T10:05:04;74.91;71.31;79.40;;
60872;Laerm;46714;50.118;14.462;2023-08-17T10:07:31;75.20;70.42;82.52;;
60872;Laerm;46714;50.118;14.462;2023-08-17T10:10:04;76.89;70.72;99.49;;
60872;Laerm;46714;50.118;14.462;2023-08-17T10:12:42;74.39;70.61;79.54;;
60872;Laerm;46714;50.118;14.462;2023-08-17T10:15:11;74.23;69.01;80.60;;
60872;Laerm;46714;50.118;14.462;2023-08-17T10:17:43;75.28;70.08;86.38;;
60872;Laerm;46714;50.118;14.462;2023-08-17T10:20:14;75.25;70.25;81.22;;
60872;Laerm;46714;50.118;14.462;2023-08-17T10:25:11;73.75;69.77;78.22;;
60872;Laerm;46714;50.118;14.462;2023-08-17T10:27:40;73.62;69.76;78.69;;
60872;Laerm;46714;50.118;14.462;2023-08-17T10:30:08;74.56;69.95;90.74;;
60872;Laerm;46714;50.118;14.462;2023-08-17T10:32:34;72.96;68.14;80.86;;
60872;Laerm;46714;50.118;14.462;2023-08-17T10:35:00;76.67;68.65;96.03;;
60872;Laerm;46714;50.118;14.462;2023-08-17T10:37:26;74.86;67.71;94.04;;
60872;Laerm;46714;50.118;14.462;2023-08-17T10:39:52;74.43;69.06;85.49;;
60872;Laerm;46714;50.118;14.462;2023-08-17T10:42:32;73.05;67.89;81.01;;
60872;Laerm;46714;50.118;14.462;2023-08-17T10:44:58;73.19;69.39;82.14;;
60872;Laerm;46714;50.118;14.462;2023-08-17T10:47:29;73.79;68.79;84.72;;
60872;Laerm;46714;50.118;14.462;2023-08-17T10:50:10;73.47;69.09;80.31;;
60872;Laerm;46714;50.118;14.462;2023-08-17T10:52:48;72.56;67.98;78.90;;
60872;Laerm;46714;50.118;14.462;2023-08-17T10:55:13;72.57;62.10;80.00;;
60872;Laerm;46714;50.118;14.462;2023-08-17T10:57:43;79.85;64.56;97.06;;
60872;Laerm;46714;50.118;14.462;2023-08-17T11:00:18;73.00;67.54;80.53;;
60872;Laerm;46714;50.118;14.462;2023-08-17T11:02:58;73.37;69.09;83.64;;
60872;Laerm;46714;50.118;14.462;2023-08-17T11:05:49;73.64;65.86;78.99;;
60872;Laerm;46714;50.118;14.462;2023-08-17T11:08:40;74.31;68.64;78.41;;
60872;Laerm;46714;50.118;14.462;2023-08-17T11:11:15;74.56;70.06;90.09;;
60872;Laerm;46714;50.118;14.462;2023-08-17T11:13:44;77.61;69.95;96.75;;
60872;Laerm;46714;50.118;14.462;2023-08-17T11:16:13;74.39;70.11;81.45;;
60872;Laerm;46714;50.118;14.462;2023-08-17T11:18:39;73.84;69.66;79.07;;
60872;Laerm;46714;50.118;14.462;2023-08-17T11:21:07;74.24;69.81;85.20;;
60872;Laerm;46714;50.118;14.462;2023-08-17T11:23:35;74.14;69.78;77.58;;
60872;Laerm;46714;50.118;14.462;2023-08-17T11:26:01;75.61;69.52;91.89;;
60872;Laerm;46714;50.118;14.462;2023-08-17T11:28:30;73.44;69.75;79.66;;
60872;Laerm;46714;50.118;14.462;2023-08-17T11:31:05;73.51;69.10;78.45;;
60872;Laerm;46714;50.118;14.462;2023-08-17T11:33:32;73.93;69.44;79.66;;
60872;Laerm;46714;50.118;14.462;2023-08-17T11:35:59;74.11;70.02;80.18;;
60872;Laerm;46714;50.118;14.462;2023-08-17T11:38:26;73.25;69.70;80.90;;
60872;Laerm;46714;50.118;14.462;2023-08-17T11:40:52;80.66;70.41;98.63;;
60872;Laerm;46714;50.118;14.462;2023-08-17T11:43:18;77.76;68.95;92.92;;
60872;Laerm;46714;50.118;14.462;2023-08-17T11:45:45;73.28;69.29;80.10;;
60872;Laerm;46714;50.118;14.462;2023-08-17T11:48:11;77.60;69.74;97.69;;
60872;Laerm;46714;50.118;14.462;2023-08-17T11:50:38;73.59;69.04;79.03;;
60872;Laerm;46714;50.118;14.462;2023-08-17T11:53:04;75.07;68.34;89.65;;
60872;Laerm;46714;50.118;14.462;2023-08-17T11:55:29;73.18;69.06;82.21;;
60872;Laerm;46714;50.118;14.462;2023-08-17T11:57:55;78.17;68.93;102.32;;
60872;Laerm;46714;50.118;14.462;2023-08-17T12:00:21;73.34;68.41;80.35;;
60872;Laerm;46714;50.118;14.462;2023-08-17T12:02:51;75.16;70.05;89.14;;
60872;Laerm;46714;50.118;14.462;2023-08-17T12:05:24;78.57;69.25;101.40;;
60872;Laerm;46714;50.118;14.462;2023-08-17T12:07:55;73.81;70.24;79.24;;
60872;Laerm;46714;50.118;14.462;2023-08-17T12:10:21;76.64;69.44;94.27;;
60872;Laerm;46714;50.118;14.462;2023-08-17T12:12:48;74.07;67.37;81.18;;
60872;Laerm;46714;50.118;14.462;2023-08-17T12:15:16;73.18;69.05;77.48;;
60872;Laerm;46714;50.118;14.462;2023-08-17T12:17:49;77.86;68.67;98.88;;
60872;Laerm;46714;50.118;14.462;2023-08-17T12:20:18;72.73;69.47;77.58;;
60872;Laerm;46714;50.118;14.462;2023-08-17T12:22:45;73.61;68.66;82.46;;
60872;Laerm;46714;50.118;14.462;2023-08-17T12:25:11;78.65;68.18;96.38;;
60872;Laerm;46714;50.118;14.462;2023-08-17T12:27:36;74.18;67.25;82.10;;
60872;Laerm;46714;50.118;14.462;2023-08-17T12:30:02;72.05;67.43;77.66;;
60872;Laerm;46714;50.118;14.462;2023-08-17T12:32:28;72.96;68.40;79.55;;
60872;Laerm;46714;50.118;14.462;2023-08-17T12:34:53;72.47;67.76;80.75;;
60872;Laerm;46714;50.118;14.462;2023-08-17T12:37:19;72.16;65.04;78.75;;
60872;Laerm;46714;50.118;14.462;2023-08-17T12:39:48;72.21;66.72;79.71;;
60872;Laerm;46714;50.118;14.462;2023-08-17T12:42:14;73.43;69.65;80.51;;
60872;Laerm;46714;50.118;14.462;2023-08-17T12:44:40;73.23;68.46;88.82;;
60872;Laerm;46714;50.118;14.462;2023-08-17T12:47:06;72.19;68.42;76.85;;
60872;Laerm;46714;50.118;14.462;2023-08-17T12:49:31;72.75;68.43;79.95;;
60872;Laerm;46714;50.118;14.462;2023-08-17T12:51:57;73.39;69.76;82.19;;
60872;Laerm;46714;50.118;14.462;2023-08-17T12:54:22;74.51;70.49;91.18;;
60872;Laerm;46714;50.118;14.462;2023-08-17T12:56:47;77.55;70.39;97.78;;
60872;Laerm;46714;50.118;14.462;2023-08-17T12:59:13;73.56;68.50;79.37;;
60872;Laerm;46714;50.118;14.462;2023-08-17T13:01:38;74.87;69.98;81.37;;
60872;Laerm;46714;50.118;14.462;2023-08-17T13:04:05;77.51;69.63;97.24;;
60872;Laerm;46714;50.118;14.462;2023-08-17T13:06:31;75.56;69.02;93.07;;
60872;Laerm;46714;50.118;14.462;2023-08-17T13:08:56;73.80;69.97;81.09;;
60872;Laerm;46714;50.118;14.462;2023-08-17T13:11:21;73.51;69.40;79.10;;
60872;Laerm;46714;50.118;14.462;2023-08-17T13:13:47;76.24;68.70;94.53;;
60872;Laerm;46714;50.118;14.462;2023-08-17T13:16:12;75.58;70.06;92.04;;
60872;Laerm;46714;50.118;14.462;2023-08-17T13:18:38;74.81;70.47;80.27;;
60872;Laerm;46714;50.118;14.462;2023-08-17T13:21:03;74.07;68.67;79.45;;
60872;Laerm;46714;50.118;14.462;2023-08-17T13:23:28;76.90;68.71;96.19;;
60872;Laerm;46714;50.118;14.462;2023-08-17T13:25:54;72.88;68.18;81.85;;
60872;Laerm;46714;50.118;14.462;2023-08-17T13:28:19;73.41;69.43;81.46;;
60872;Laerm;46714;50.118;14.462;2023-08-17T13:30:45;72.92;68.31;81.00;;
60872;Laerm;46714;50.118;14.462;2023-08-17T13:33:10;72.13;66.84;84.95;;